Time;durP1;ratioP1;P1;durP2;ratioP2;P2;SDS_P1;SDS_P2;PMS_P1;PMS_P2;Temp;Humidity;BMP_temperature;BMP_pressure;BME280_temperature;BME280_humidity;BME280_pressure;Samples;Min_cycle;Max_cycle;Signal;HPM_P1;HPM_P2
2022/04/14 00:01:56;;;;;;;0.23;0.23;;;;;;;;;;1846393;76;26392;-50
2022/04/14 00:04:23;;;;;;;0.50;0.50;;;;;;;;;;1842696;76;26260;-51
2022/04/14 00:06:50;;;;;;;0.20;0.20;;;;;;;;;;1844085;76;26332;-58
2022/04/14 00:09:18;;;;;;;0.10;0.10;;;;;;;;;;1836762;76;26769;-53
2022/04/14 00:11:45;;;;;;;0.30;0.23;;;;;;;;;;1836263;77;26245;-54
2022/04/14 00:14:13;;;;;;;0.35;0.20;;;;;;;;;;1843029;77;26258;-57
2022/04/14 00:16:40;;;;;;;0.28;0.28;;;;;;;;;;1849139;76;26278;-46
2022/04/14 00:19:07;;;;;;;0.30;0.30;;;;;;;;;;1837603;76;26292;-58
2022/04/14 00:21:35;;;;;;;0.30;0.30;;;;;;;;;;1842460;76;26336;-52
2022/04/14 00:24:02;;;;;;;1.35;0.20;;;;;;;;;;1837681;77;25991;-54
2022/04/14 00:26:30;;;;;;;0.23;0.10;;;;;;;;;;1843456;76;26278;-56
2022/04/14 00:28:57;;;;;;;0.65;0.40;;;;;;;;;;1834489;76;26379;-54
2022/04/14 00:31:25;;;;;;;0.35;0.20;;;;;;;;;;1835621;76;26893;-53
2022/04/14 00:33:52;;;;;;;0.90;0.20;;;;;;;;;;1834982;77;26283;-53
2022/04/14 00:36:19;;;;;;;0.23;0.23;;;;;;;;;;1846841;77;26262;-55
2022/04/14 00:38:47;;;;;;;0.20;0.20;;;;;;;;;;1843502;76;26259;-51
2022/04/14 00:41:14;;;;;;;0.30;0.25;;;;;;;;;;1847342;77;26252;-53
2022/04/14 00:43:43;;;;;;;0.20;0.20;;;;;;;;;;1835590;76;26298;-53
2022/04/14 00:46:10;;;;;;;1.95;0.40;;;;;;;;;;1847438;76;26274;-52
2022/04/14 00:48:38;;;;;;;0.30;0.23;;;;;;;;;;1833856;76;26328;-49
2022/04/14 00:51:07;;;;;;;0.30;0.30;;;;;;;;;;1837062;77;26266;-45
2022/04/14 00:53:34;;;;;;;0.40;0.40;;;;;;;;;;1858406;76;26832;-51
2022/04/14 00:56:02;;;;;;;1.85;0.30;;;;;;;;;;1854414;75;26817;-50
2022/04/14 00:58:29;;;;;;;0.17;0.17;;;;;;;;;;1859852;76;26739;-50
2022/04/14 01:00:56;;;;;;;0.28;0.28;;;;;;;;;;1857800;75;26373;-48
2022/04/14 01:03:24;;;;;;;0.10;0.10;;;;;;;;;;1860708;75;26353;-48
2022/04/14 01:05:52;;;;;;;0.30;0.30;;;;;;;;;;1855122;76;26266;-54
2022/04/14 01:08:20;;;;;;;0.20;0.20;;;;;;;;;;1860095;76;26845;-46
2022/04/14 01:10:48;;;;;;;1.25;0.20;;;;;;;;;;1853850;76;26614;-44
2022/04/14 01:13:16;;;;;;;0.10;0.10;;;;;;;;;;1864905;76;26280;-46
2022/04/14 01:15:47;;;;;;;0.40;0.30;;;;;;;;;;1860256;76;26247;-45
2022/04/14 01:18:14;;;;;;;0.15;0.15;;;;;;;;;;1876295;75;26258;-49
2022/04/14 01:20:43;;;;;;;0.28;0.25;;;;;;;;;;1866532;75;26263;-47
2022/04/14 01:23:11;;;;;;;0.30;0.30;;;;;;;;;;1879973;75;26245;-47
2022/04/14 01:25:38;;;;;;;0.30;0.30;;;;;;;;;;1887834;75;26323;-49
2022/04/14 01:28:06;;;;;;;0.20;0.20;;;;;;;;;;1854810;76;26742;-49
2022/04/14 01:30:35;;;;;;;0.20;0.20;;;;;;;;;;1876224;76;26307;-47
2022/04/14 01:33:02;;;;;;;0.20;0.20;;;;;;;;;;1848628;76;26611;-54
2022/04/14 01:35:30;;;;;;;0.30;0.30;;;;;;;;;;1856621;76;26272;-51
2022/04/14 01:37:57;;;;;;;0.20;0.20;;;;;;;;;;1833415;77;26257;-51
2022/04/14 01:40:24;;;;;;;0.20;0.17;;;;;;;;;;1843401;77;26264;-46
2022/04/14 01:42:51;;;;;;;0.30;0.30;;;;;;;;;;1835689;77;26237;-49
2022/04/14 01:45:19;;;;;;;0.20;0.20;;;;;;;;;;1857757;77;26211;-50
2022/04/14 01:47:47;;;;;;;0.20;0.20;;;;;;;;;;1836717;77;26261;-49
2022/04/14 01:50:15;;;;;;;0.23;0.23;;;;;;;;;;1829060;77;26269;-45
2022/04/14 01:52:44;;;;;;;0.17;0.17;;;;;;;;;;1849919;77;26736;-45
2022/04/14 01:55:13;;;;;;;0.10;0.10;;;;;;;;;;1845342;76;26810;-45
2022/04/14 01:57:40;;;;;;;0.15;0.15;;;;;;;;;;1854813;76;26289;-47
2022/04/14 02:00:08;;;;;;;0.35;0.35;;;;;;;;;;1835696;76;26292;-47
2022/04/14 02:02:36;;;;;;;0.30;0.30;;;;;;;;;;1841564;76;26248;-50
2022/04/14 02:05:04;;;;;;;0.20;0.20;;;;;;;;;;1846522;77;26238;-50
2022/04/14 02:07:31;;;;;;;0.40;0.20;;;;;;;;;;1851953;76;26684;-54
2022/04/14 02:09:58;;;;;;;0.17;0.17;;;;;;;;;;1841854;77;26309;-55
2022/04/14 02:12:26;;;;;;;0.20;0.20;;;;;;;;;;1827290;77;26260;-51
2022/04/14 02:14:54;;;;;;;0.30;0.30;;;;;;;;;;1818339;77;26302;-45
2022/04/14 02:17:21;;;;;;;0.40;0.40;;;;;;;;;;1845864;77;26268;-45
2022/04/14 02:19:48;;;;;;;0.55;0.47;;;;;;;;;;1843914;76;26271;-48
2022/04/14 02:22:16;;;;;;;0.30;0.30;;;;;;;;;;1837812;77;26264;-46
2022/04/14 02:24:43;;;;;;;0.30;0.30;;;;;;;;;;1833815;77;26291;-46
2022/04/14 02:27:10;;;;;;;0.33;0.33;;;;;;;;;;1836308;77;26759;-47
2022/04/14 02:29:38;;;;;;;1.35;0.20;;;;;;;;;;1823959;76;26561;-53
2022/04/14 02:32:06;;;;;;;0.20;0.20;;;;;;;;;;1825706;77;26281;-52
2022/04/14 02:34:33;;;;;;;1.10;0.30;;;;;;;;;;1833427;77;26321;-50
2022/04/14 02:37:00;;;;;;;0.23;0.23;;;;;;;;;;1825169;77;26341;-54
2022/04/14 02:39:28;;;;;;;1.15;0.15;;;;;;;;;;1833417;77;26252;-53
2022/04/14 02:41:55;;;;;;;1.17;0.30;;;;;;;;;;1823646;76;26288;-47
2022/04/14 02:44:22;;;;;;;1.05;0.37;;;;;;;;;;1827645;77;26347;-52
2022/04/14 02:46:50;;;;;;;0.25;0.25;;;;;;;;;;1837944;77;26719;-47
2022/04/14 02:49:17;;;;;;;0.30;0.30;;;;;;;;;;1827939;77;26335;-46
2022/04/14 02:51:44;;;;;;;0.55;0.30;;;;;;;;;;1836515;77;26280;-52
2022/04/14 02:54:12;;;;;;;0.30;0.30;;;;;;;;;;1839530;77;26276;-46
2022/04/14 02:56:39;;;;;;;0.30;0.30;;;;;;;;;;1827890;77;26267;-49
2022/04/14 02:59:06;;;;;;;0.30;0.30;;;;;;;;;;1831125;77;26279;-49
2022/04/14 03:01:33;;;;;;;0.45;0.42;;;;;;;;;;1841327;77;26252;-53
2022/04/14 03:04:01;;;;;;;0.25;0.25;;;;;;;;;;1822605;76;26283;-55
2022/04/14 03:06:28;;;;;;;0.88;0.30;;;;;;;;;;1832840;78;26723;-48
2022/04/14 03:08:55;;;;;;;0.40;0.30;;;;;;;;;;1826294;76;26562;-47
2022/04/14 03:11:22;;;;;;;0.40;0.40;;;;;;;;;;1842023;78;26331;-46
2022/04/14 03:13:50;;;;;;;1.22;0.28;;;;;;;;;;1822189;78;26326;-50
2022/04/14 03:16:17;;;;;;;0.35;0.30;;;;;;;;;;1821639;77;26276;-42
2022/04/14 03:18:44;;;;;;;0.53;0.40;;;;;;;;;;1812880;78;26371;-49
2022/04/14 03:21:12;;;;;;;0.40;0.40;;;;;;;;;;1831371;78;26259;-45
2022/04/14 03:23:39;;;;;;;0.30;0.30;;;;;;;;;;1822812;78;26283;-53
2022/04/14 03:26:08;;;;;;;0.30;0.30;;;;;;;;;;1811830;78;26377;-56
2022/04/14 03:28:36;;;;;;;0.40;0.40;;;;;;;;;;1832487;76;26284;-46
2022/04/14 03:31:04;;;;;;;3.12;0.33;;;;;;;;;;1813057;78;26651;-45
2022/04/14 03:33:31;;;;;;;0.30;0.30;;;;;;;;;;1813457;78;26782;-46
2022/04/14 03:35:59;;;;;;;0.33;0.33;;;;;;;;;;1825261;76;26887;-49
2022/04/14 03:38:26;;;;;;;0.30;0.30;;;;;;;;;;1813104;78;26828;-52
2022/04/14 03:40:54;;;;;;;0.30;0.30;;;;;;;;;;1833750;78;26759;-45
2022/04/14 03:43:21;;;;;;;0.40;0.40;;;;;;;;;;1812845;78;26296;-48
2022/04/14 03:45:48;;;;;;;0.30;0.30;;;;;;;;;;1820738;76;26341;-48
2022/04/14 03:48:16;;;;;;;0.30;0.30;;;;;;;;;;1818339;78;26742;-49
2022/04/14 03:50:43;;;;;;;0.20;0.20;;;;;;;;;;1830334;77;26862;-45
2022/04/14 03:53:10;;;;;;;0.47;0.47;;;;;;;;;;1827383;78;26735;-51
2022/04/14 03:55:37;;;;;;;0.55;0.45;;;;;;;;;;1832299;78;26300;-48
2022/04/14 03:58:05;;;;;;;0.30;0.30;;;;;;;;;;1826988;78;26652;-47
2022/04/14 04:00:32;;;;;;;0.50;0.50;;;;;;;;;;1837215;78;26344;-49
2022/04/14 04:03:00;;;;;;;0.50;0.50;;;;;;;;;;1824999;76;26934;-47
2022/04/14 04:05:27;;;;;;;0.50;0.50;;;;;;;;;;1840262;76;26264;-45
2022/04/14 04:07:54;;;;;;;0.30;0.30;;;;;;;;;;1814508;78;26265;-48
2022/04/14 04:10:21;;;;;;;0.40;0.40;;;;;;;;;;1838562;76;26386;-42
2022/04/14 04:12:48;;;;;;;0.30;0.30;;;;;;;;;;1818115;76;26219;-50
2022/04/14 04:15:16;;;;;;;0.23;0.23;;;;;;;;;;1833870;78;26342;-51
2022/04/14 04:17:45;;;;;;;0.53;0.42;;;;;;;;;;1812824;78;26672;-47
2022/04/14 04:20:12;;;;;;;0.28;0.28;;;;;;;;;;1820579;78;26365;-50
2022/04/14 04:22:40;;;;;;;0.20;0.20;;;;;;;;;;1825180;78;26298;-45
2022/04/14 04:25:08;;;;;;;0.40;0.40;;;;;;;;;;1829561;77;26281;-49
2022/04/14 04:27:36;;;;;;;0.30;0.30;;;;;;;;;;1828628;78;26213;-47
2022/04/14 04:30:04;;;;;;;0.40;0.40;;;;;;;;;;1826082;78;26353;-43
2022/04/14 04:32:35;;;;;;;1.10;0.40;;;;;;;;;;1815561;78;26299;-44
2022/04/14 04:35:03;;;;;;;0.30;0.30;;;;;;;;;;1822046;78;26241;-48
2022/04/14 04:37:31;;;;;;;1.00;0.40;;;;;;;;;;1845384;76;26336;-51
2022/04/14 04:39:58;;;;;;;0.20;0.20;;;;;;;;;;1818478;78;26257;-47
2022/04/14 04:42:26;;;;;;;0.30;0.30;;;;;;;;;;1818594;78;26862;-46
2022/04/14 04:44:53;;;;;;;1.95;0.20;;;;;;;;;;1840849;76;26281;-53
2022/04/14 04:47:21;;;;;;;0.40;0.40;;;;;;;;;;1834204;77;26365;-55
2022/04/14 04:49:49;;;;;;;0.30;0.30;;;;;;;;;;1839424;76;26335;-49
2022/04/14 04:52:17;;;;;;;0.30;0.30;;;;;;;;;;1813702;78;26232;-44
2022/04/14 04:54:45;;;;;;;0.30;0.30;;;;;;;;;;1811482;78;26233;-48
2022/04/14 04:57:12;;;;;;;0.50;0.50;;;;;;;;;;1815287;78;26776;-45
2022/04/14 04:59:39;;;;;;;0.40;0.40;;;;;;;;;;1837021;77;26756;-52
2022/04/14 05:02:06;;;;;;;0.30;0.30;;;;;;;;;;1832117;78;27387;-46
2022/04/14 05:04:34;;;;;;;0.40;0.40;;;;;;;;;;1828761;78;26261;-44
2022/04/14 05:07:01;;;;;;;1.10;0.40;;;;;;;;;;1827596;78;26336;-54
2022/04/14 05:09:28;;;;;;;0.30;0.30;;;;;;;;;;1820388;78;26393;-54
2022/04/14 05:11:55;;;;;;;0.30;0.30;;;;;;;;;;1816832;77;26339;-49
2022/04/14 05:14:23;;;;;;;0.30;0.30;;;;;;;;;;1834123;78;26275;-49
2022/04/14 05:16:50;;;;;;;1.05;0.23;;;;;;;;;;1825545;77;27255;-55
2022/04/14 05:19:18;;;;;;;0.33;0.33;;;;;;;;;;1828116;78;26271;-52
2022/04/14 05:21:47;;;;;;;0.30;0.30;;;;;;;;;;1821288;76;26265;-46
2022/04/14 05:24:14;;;;;;;2.27;0.40;;;;;;;;;;1817706;78;26279;-44
2022/04/14 05:26:41;;;;;;;0.35;0.35;;;;;;;;;;1822205;78;26526;-52
2022/04/14 05:29:09;;;;;;;3.27;1.02;;;;;;;;;;1815398;78;26253;-56
2022/04/14 05:31:36;;;;;;;0.40;0.40;;;;;;;;;;1821043;76;26272;-47
2022/04/14 05:34:04;;;;;;;0.53;0.53;;;;;;;;;;1828913;77;26279;-53
2022/04/14 05:36:31;;;;;;;0.40;0.40;;;;;;;;;;1827086;76;26332;-59
2022/04/14 05:38:59;;;;;;;0.53;0.30;;;;;;;;;;1841414;78;26300;-50
2022/04/14 05:41:26;;;;;;;1.27;0.37;;;;;;;;;;1824371;78;26766;-46
2022/04/14 05:43:55;;;;;;;0.65;0.40;;;;;;;;;;1832147;76;26743;-52
2022/04/14 05:46:22;;;;;;;0.62;0.42;;;;;;;;;;1823925;78;26861;-48
2022/04/14 05:48:50;;;;;;;0.30;0.30;;;;;;;;;;1821158;78;26717;-46
2022/04/14 05:51:20;;;;;;;0.30;0.30;;;;;;;;;;1823323;78;26285;-46
2022/04/14 05:53:50;;;;;;;0.50;0.50;;;;;;;;;;1826161;78;26357;-50
2022/04/14 05:56:17;;;;;;;3.27;0.40;;;;;;;;;;1823315;78;26551;-49
2022/04/14 05:58:44;;;;;;;0.50;0.50;;;;;;;;;;1823697;78;26732;-46
2022/04/14 06:01:12;;;;;;;0.62;0.30;;;;;;;;;;1824197;78;26307;-55
2022/04/14 06:03:40;;;;;;;0.62;0.50;;;;;;;;;;1814943;76;26342;-56
2022/04/14 06:06:09;;;;;;;0.60;0.60;;;;;;;;;;1831493;76;26326;-52
2022/04/14 06:08:36;;;;;;;0.72;0.53;;;;;;;;;;1819251;77;26361;-46
2022/04/14 06:11:05;;;;;;;2.52;0.50;;;;;;;;;;1819161;76;26299;-47
2022/04/14 06:13:33;;;;;;;7.55;0.75;;;;;;;;;;1825537;78;26335;-59
2022/04/14 06:16:01;;;;;;;11.63;1.55;;;;;;;;;;1824224;78;26299;-54
2022/04/14 06:18:28;;;;;;;7.42;0.80;;;;;;;;;;1823809;76;26349;-45
2022/04/14 06:20:55;;;;;;;7.90;0.82;;;;;;;;;;1829581;76;26317;-55
2022/04/14 06:23:23;;;;;;;7.15;0.90;;;;;;;;;;1825019;78;26328;-62
2022/04/14 06:25:50;;;;;;;3.35;0.75;;;;;;;;;;1825653;78;26263;-50
2022/04/14 06:28:18;;;;;;;8.60;1.10;;;;;;;;;;1812500;76;26329;-52
2022/04/14 06:30:50;;;;;;;3.35;0.85;;;;;;;;;;1816135;78;26263;-44
2022/04/14 06:33:19;;;;;;;10.88;0.98;;;;;;;;;;1821950;78;26893;-45
2022/04/14 06:35:47;;;;;;;5.65;1.70;;;;;;;;;;1818666;76;26713;-48
2022/04/14 06:38:14;;;;;;;2.47;0.90;;;;;;;;;;1832579;78;25790;-55
2022/04/14 06:40:42;;;;;;;5.95;0.80;;;;;;;;;;1823472;78;26663;-48
2022/04/14 06:43:09;;;;;;;6.33;0.72;;;;;;;;;;1819864;78;26707;-48
2022/04/14 06:45:36;;;;;;;8.65;0.80;;;;;;;;;;1817608;78;26280;-53
2022/04/14 06:48:04;;;;;;;1.25;0.75;;;;;;;;;;1817086;78;26329;-47
2022/04/14 06:50:31;;;;;;;0.82;0.70;;;;;;;;;;1823082;78;26247;-48
2022/04/14 06:52:59;;;;;;;1.65;0.70;;;;;;;;;;1825719;78;26279;-50
2022/04/14 06:55:26;;;;;;;7.90;0.88;;;;;;;;;;1823508;78;26256;-53
2022/04/14 06:57:54;;;;;;;6.28;1.77;;;;;;;;;;1825915;78;26354;-58
2022/04/14 07:00:21;;;;;;;1.12;0.75;;;;;;;;;;1815403;78;26279;-46
2022/04/14 07:02:50;;;;;;;2.52;0.80;;;;;;;;;;1828452;76;26288;-49
2022/04/14 07:05:18;;;;;;;2.15;0.70;;;;;;;;;;1823654;78;26881;-50
2022/04/14 07:07:46;;;;;;;1.67;0.60;;;;;;;;;;1821065;78;26322;-58
2022/04/14 07:10:13;;;;;;;1.50;0.78;;;;;;;;;;1812785;78;27524;-50
2022/04/14 07:12:41;;;;;;;1.00;0.60;;;;;;;;;;1812970;78;26288;-50
2022/04/14 07:15:09;;;;;;;0.70;0.70;;;;;;;;;;1823676;78;26389;-51
2022/04/14 07:17:37;;;;;;;3.20;0.55;;;;;;;;;;1837265;78;26704;-46
2022/04/14 07:20:07;;;;;;;1.80;0.75;;;;;;;;;;1829854;78;26338;-50
2022/04/14 07:22:47;;;;;;;2.95;1.10;;;;;;;;;;1826599;78;26255;-52
2022/04/14 07:25:15;;;;;;;3.60;0.88;;;;;;;;;;1822009;78;26333;-50
2022/04/14 07:27:43;;;;;;;1.98;0.70;;;;;;;;;;1824144;76;26224;-42
2022/04/14 07:30:12;;;;;;;2.62;0.68;;;;;;;;;;1814093;78;26255;-54
2022/04/14 07:32:43;;;;;;;1.52;0.70;;;;;;;;;;1839931;78;26300;-48
2022/04/14 07:35:10;;;;;;;0.60;0.60;;;;;;;;;;1830229;78;26763;-45
2022/04/14 07:37:38;;;;;;;1.95;0.80;;;;;;;;;;1813633;76;26266;-49
2022/04/14 07:40:06;;;;;;;0.75;0.75;;;;;;;;;;1831115;76;26331;-51
2022/04/14 07:42:37;;;;;;;0.47;0.47;;;;;;;;;;1821079;76;26357;-47
2022/04/14 07:45:05;;;;;;;1.02;0.80;;;;;;;;;;1831349;76;26666;-57
2022/04/14 07:47:32;;;;;;;1.07;0.65;;;;;;;;;;1836248;78;26221;-44
2022/04/14 07:49:59;;;;;;;0.80;0.80;;;;;;;;;;1830514;76;26342;-48
2022/04/14 07:52:27;;;;;;;0.78;0.78;;;;;;;;;;1830466;78;26295;-56
2022/04/14 07:54:54;;;;;;;0.80;0.80;;;;;;;;;;1837145;78;26900;-50
2022/04/14 07:57:21;;;;;;;0.60;0.60;;;;;;;;;;1837524;76;26784;-45
2022/04/14 07:59:48;;;;;;;1.20;0.80;;;;;;;;;;1843392;76;26334;-46
2022/04/14 08:02:18;;;;;;;1.50;0.70;;;;;;;;;;1826134;77;26304;-57
2022/04/14 08:04:44;;;;;;;0.88;0.62;;;;;;;;;;1820772;77;26358;-45
2022/04/14 08:07:12;;;;;;;1.52;0.60;;;;;;;;;;1824444;77;26214;-49
2022/04/14 08:09:39;;;;;;;0.68;0.68;;;;;;;;;;1828819;76;26401;-45
2022/04/14 08:12:07;;;;;;;1.45;0.70;;;;;;;;;;1826440;76;26372;-46
2022/04/14 08:14:34;;;;;;;8.08;0.70;;;;;;;;;;1837801;76;26264;-58
2022/04/14 08:17:04;;;;;;;2.22;0.57;;;;;;;;;;1828519;77;26273;-57
2022/04/14 08:19:32;;;;;;;0.80;0.80;;;;;;;;;;1841915;76;26398;-53
2022/04/14 08:21:59;;;;;;;0.60;0.60;;;;;;;;;;1836597;76;26269;-45
2022/04/14 08:24:27;;;;;;;1.05;0.70;;;;;;;;;;1834446;76;26330;-53
2022/04/14 08:26:55;;;;;;;0.78;0.78;;;;;;;;;;1818641;76;26284;-47
2022/04/14 08:29:22;;;;;;;0.80;0.80;;;;;;;;;;1826222;76;26817;-47
2022/04/14 08:31:50;;;;;;;0.70;0.70;;;;;;;;;;1820235;76;26643;-49
2022/04/14 08:34:17;;;;;;;0.70;0.70;;;;;;;;;;1820516;77;26372;-47
2022/04/14 08:36:44;;;;;;;0.85;0.80;;;;;;;;;;1820738;78;26284;-48
2022/04/14 08:39:12;;;;;;;0.68;0.68;;;;;;;;;;1843463;78;26581;-54
2022/04/14 08:41:40;;;;;;;0.70;0.70;;;;;;;;;;1831771;76;26325;-49
2022/04/14 08:44:10;;;;;;;2.70;0.62;;;;;;;;;;1820442;78;26225;-53
2022/04/14 08:46:37;;;;;;;1.20;1.10;;;;;;;;;;1828554;78;26936;-46
2022/04/14 08:49:05;;;;;;;0.68;0.68;;;;;;;;;;1816294;78;26282;-57
2022/04/14 08:51:39;;;;;;;0.72;0.60;;;;;;;;;;1822647;78;25759;-53
2022/04/14 08:54:05;;;;;;;0.88;0.70;;;;;;;;;;1825723;78;26279;-49
2022/04/14 08:56:32;;;;;;;0.93;0.70;;;;;;;;;;1832839;78;26329;-58
2022/04/14 08:59:01;;;;;;;1.95;0.72;;;;;;;;;;1834186;76;26288;-48
2022/04/14 09:01:28;;;;;;;0.70;0.70;;;;;;;;;;1832859;78;27213;-46
2022/04/14 09:03:57;;;;;;;0.60;0.60;;;;;;;;;;1820521;78;26852;-51
2022/04/14 09:06:27;;;;;;;1.77;0.80;;;;;;;;;;1816653;78;26280;-48
2022/04/14 09:08:54;;;;;;;1.07;0.70;;;;;;;;;;1821404;78;26295;-49
2022/04/14 09:11:21;;;;;;;2.50;0.80;;;;;;;;;;1818872;76;26215;-45
2022/04/14 09:13:48;;;;;;;1.72;0.75;;;;;;;;;;1828488;78;26295;-61
2022/04/14 09:16:16;;;;;;;1.20;0.98;;;;;;;;;;1826945;78;26322;-52
2022/04/14 09:18:45;;;;;;;3.62;0.80;;;;;;;;;;1826500;78;26267;-51
2022/04/14 09:21:13;;;;;;;0.75;0.70;;;;;;;;;;1816948;76;26271;-54
2022/04/14 09:23:42;;;;;;;0.60;0.60;;;;;;;;;;1838019;78;26327;-50
2022/04/14 09:26:14;;;;;;;2.17;0.80;;;;;;;;;;1828467;78;26249;-56
2022/04/14 09:28:42;;;;;;;6.55;0.85;;;;;;;;;;1832762;76;26213;-43
2022/04/14 09:31:11;;;;;;;10.50;1.05;;;;;;;;;;1829661;76;26648;-43
2022/04/14 09:33:46;;;;;;;0.70;0.70;;;;;;;;;;1828407;76;26339;-43
2022/04/14 09:36:17;;;;;;;1.12;0.90;;;;;;;;;;1829437;76;26363;-41
2022/04/14 09:38:59;;;;;;;0.70;0.70;;;;;;;;;;1824551;78;26756;-41
2022/04/14 09:41:31;;;;;;;2.05;0.85;;;;;;;;;;1819130;78;26382;-41
2022/04/14 09:44:00;;;;;;;0.75;0.75;;;;;;;;;;1835907;77;26261;-44
2022/04/14 09:46:28;;;;;;;0.93;0.82;;;;;;;;;;1836351;77;26261;-41
2022/04/14 09:49:06;;;;;;;3.35;0.90;;;;;;;;;;1828623;76;26295;-44
2022/04/14 09:51:29;;;;;;;2.45;0.82;;;;;;;;;;1823152;78;26406;-39
2022/04/14 09:54:12;;;;;;;0.80;0.80;;;;;;;;;;1822932;76;26736;-40
2022/04/14 09:56:41;;;;;;;1.20;0.80;;;;;;;;;;1829378;76;26360;-41
2022/04/14 09:59:09;;;;;;;0.80;0.70;;;;;;;;;;1816271;76;26275;-42
2022/04/14 10:01:36;;;;;;;1.15;0.80;;;;;;;;;;1809979;77;26335;-44
2022/04/14 10:04:06;;;;;;;0.60;0.60;;;;;;;;;;1822623;78;26845;-40
2022/04/14 10:06:33;;;;;;;0.88;0.65;;;;;;;;;;1810774;77;26293;-41
2022/04/14 10:09:02;;;;;;;0.60;0.60;;;;;;;;;;1832085;76;26277;-44
2022/04/14 10:11:32;;;;;;;0.70;0.70;;;;;;;;;;1811617;76;27179;-45
2022/04/14 10:14:12;;;;;;;0.80;0.80;;;;;;;;;;1835101;77;26313;-42
2022/04/14 10:16:40;;;;;;;0.78;0.78;;;;;;;;;;1836842;76;26288;-46
2022/04/14 10:19:09;;;;;;;0.93;0.70;;;;;;;;;;1819508;77;26272;-48
2022/04/14 10:21:39;;;;;;;2.22;0.70;;;;;;;;;;1817344;76;26346;-47
2022/04/14 10:24:07;;;;;;;1.42;0.65;;;;;;;;;;1848989;77;26729;-43
2022/04/14 10:26:35;;;;;;;0.70;0.70;;;;;;;;;;1838303;76;26370;-45
2022/04/14 10:29:09;;;;;;;0.68;0.50;;;;;;;;;;1845743;76;26549;-43
2022/04/14 10:31:37;;;;;;;0.65;0.60;;;;;;;;;;1848178;76;26662;-46
2022/04/14 10:34:07;;;;;;;0.78;0.78;;;;;;;;;;1847536;76;26772;-41
2022/04/14 10:36:39;;;;;;;0.70;0.70;;;;;;;;;;1845220;76;26352;-43
2022/04/14 10:39:08;;;;;;;0.68;0.68;;;;;;;;;;1829420;77;26270;-42
2022/04/14 10:41:37;;;;;;;1.55;0.80;;;;;;;;;;1855407;76;26250;-44
2022/04/14 10:44:04;;;;;;;0.95;0.90;;;;;;;;;;1835543;76;26248;-43
2022/04/14 10:46:33;;;;;;;1.02;0.60;;;;;;;;;;1851632;76;26293;-46
2022/04/14 10:49:13;;;;;;;0.62;0.62;;;;;;;;;;1851649;76;26266;-43
2022/04/14 10:51:41;;;;;;;0.62;0.60;;;;;;;;;;1839627;77;26271;-42
2022/04/14 10:54:09;;;;;;;1.50;0.60;;;;;;;;;;1849916;76;26242;-44
2022/04/14 10:56:42;;;;;;;0.68;0.68;;;;;;;;;;1847737;76;26292;-41
2022/04/14 10:59:13;;;;;;;0.80;0.80;;;;;;;;;;1794477;78;26327;-45
2022/04/14 11:01:51;;;;;;;0.60;0.60;;;;;;;;;;1834234;76;26279;-48
2022/04/14 11:04:29;;;;;;;0.93;0.70;;;;;;;;;;1826193;76;26758;-48
2022/04/14 11:07:16;;;;;;;0.70;0.70;;;;;;;;;;1826675;76;26376;-46
2022/04/14 11:09:45;;;;;;;0.70;0.70;;;;;;;;;;1831203;76;26311;-44
2022/04/14 11:12:13;;;;;;;0.82;0.70;;;;;;;;;;1829934;76;26259;-42
2022/04/14 11:14:52;;;;;;;0.70;0.70;;;;;;;;;;1798548;77;26747;-43
2022/04/14 11:18:09;;;;;;;0.70;0.70;;;;;;;;;;1857524;76;26276;-49
2022/04/14 11:20:14;;;;;;;0.70;0.70;;;;;;;;;;1841913;77;26623;-45
2022/04/14 11:23:00;;;;;;;0.70;0.70;;;;;;;;;;1831166;77;26229;-47
2022/04/14 11:25:42;;;;;;;1.27;0.80;;;;;;;;;;1845468;76;26941;-41
2022/04/14 11:28:26;;;;;;;1.45;0.70;;;;;;;;;;1845029;76;26588;-44
2022/04/14 11:30:54;;;;;;;1.37;0.82;;;;;;;;;;1809132;77;26237;-43
2022/04/14 11:33:29;;;;;;;1.72;0.75;;;;;;;;;;1858117;77;26569;-44
2022/04/14 11:36:15;;;;;;;1.22;0.80;;;;;;;;;;1863086;76;26258;-43
2022/04/14 11:38:52;;;;;;;10.15;0.85;;;;;;;;;;1847542;77;26823;-45
2022/04/14 11:41:36;;;;;;;0.70;0.70;;;;;;;;;;1844588;76;26405;-44
2022/04/14 11:44:05;;;;;;;0.70;0.70;;;;;;;;;;1813465;77;26280;-44
2022/04/14 11:46:34;;;;;;;1.50;0.80;;;;;;;;;;1828634;77;26248;-43
2022/04/14 11:49:02;;;;;;;0.80;0.80;;;;;;;;;;1820391;78;26276;-41
2022/04/14 11:51:29;;;;;;;2.02;1.05;;;;;;;;;;1847458;76;26296;-44
2022/04/14 11:53:57;;;;;;;0.60;0.60;;;;;;;;;;1826497;76;26248;-43
2022/04/14 11:56:25;;;;;;;2.15;0.82;;;;;;;;;;1857357;76;26268;-41
2022/04/14 11:58:53;;;;;;;0.80;0.80;;;;;;;;;;1850804;76;26313;-44
2022/04/14 12:01:21;;;;;;;1.62;0.80;;;;;;;;;;1837642;77;26336;-46
2022/04/14 12:03:48;;;;;;;1.60;0.88;;;;;;;;;;1812685;77;26207;-44
2022/04/14 12:06:16;;;;;;;0.90;0.90;;;;;;;;;;1825901;77;26269;-46
2022/04/14 12:08:54;;;;;;;0.72;0.72;;;;;;;;;;1847153;77;26250;-45
2022/04/14 12:11:21;;;;;;;1.10;0.90;;;;;;;;;;1841714;77;26270;-46
2022/04/14 12:13:49;;;;;;;1.05;0.95;;;;;;;;;;1851682;76;26273;-44
2022/04/14 12:16:16;;;;;;;1.75;0.80;;;;;;;;;;1850707;76;26286;-43
2022/04/14 12:18:45;;;;;;;0.85;0.85;;;;;;;;;;1845398;77;26255;-43
2022/04/14 12:21:20;;;;;;;0.93;0.90;;;;;;;;;;1847691;77;26262;-44
2022/04/14 12:23:48;;;;;;;0.80;0.80;;;;;;;;;;1836164;77;26275;-41
2022/04/14 12:26:17;;;;;;;1.00;0.80;;;;;;;;;;1845617;76;26706;-43
2022/04/14 12:28:46;;;;;;;0.85;0.85;;;;;;;;;;1842871;76;26237;-41
2022/04/14 12:31:16;;;;;;;2.33;1.07;;;;;;;;;;1842639;76;26288;-46
2022/04/14 12:33:45;;;;;;;2.87;1.10;;;;;;;;;;1842910;77;26281;-44
2022/04/14 12:36:12;;;;;;;0.80;0.80;;;;;;;;;;1843276;76;26268;-44
2022/04/14 12:38:43;;;;;;;1.15;1.10;;;;;;;;;;1834192;77;26390;-44
2022/04/14 12:41:12;;;;;;;1.10;1.00;;;;;;;;;;1866797;75;26329;-43
2022/04/14 12:43:40;;;;;;;1.00;1.00;;;;;;;;;;1856547;76;26257;-44
2022/04/14 12:46:27;;;;;;;1.10;1.10;;;;;;;;;;1869357;75;26343;-46
2022/04/14 12:49:08;;;;;;;1.07;1.07;;;;;;;;;;1867069;76;26723;-43
2022/04/14 12:51:46;;;;;;;3.10;1.10;;;;;;;;;;1860741;75;26349;-44
2022/04/14 12:54:17;;;;;;;1.00;1.00;;;;;;;;;;1845693;77;26342;-45
2022/04/14 12:57:02;;;;;;;1.00;1.00;;;;;;;;;;1863927;76;26337;-48
2022/04/14 12:59:31;;;;;;;1.40;1.10;;;;;;;;;;1874334;76;26263;-43
2022/04/14 13:02:00;;;;;;;1.22;1.10;;;;;;;;;;1846353;76;26258;-43
2022/04/14 13:04:32;;;;;;;1.32;1.15;;;;;;;;;;1853749;75;26270;-44
2022/04/14 13:07:03;;;;;;;1.15;1.15;;;;;;;;;;1871769;76;26291;-44
2022/04/14 13:09:31;;;;;;;1.00;1.00;;;;;;;;;;1856886;76;26278;-43
2022/04/14 13:11:59;;;;;;;1.25;1.17;;;;;;;;;;1866017;75;26590;-45
2022/04/14 13:14:27;;;;;;;1.02;1.02;;;;;;;;;;1864996;75;26326;-41
2022/04/14 13:16:55;;;;;;;1.10;1.10;;;;;;;;;;1875628;75;26794;-45
2022/04/14 13:19:23;;;;;;;1.00;1.00;;;;;;;;;;1869739;75;26263;-43
2022/04/14 13:21:51;;;;;;;2.70;1.00;;;;;;;;;;1877802;76;26741;-45
2022/04/14 13:24:18;;;;;;;1.27;1.20;;;;;;;;;;1866405;75;26354;-44
2022/04/14 13:26:46;;;;;;;1.00;1.00;;;;;;;;;;1865771;75;26696;-45
2022/04/14 13:29:14;;;;;;;0.82;0.82;;;;;;;;;;1864639;76;26332;-44
2022/04/14 13:31:42;;;;;;;1.65;0.80;;;;;;;;;;1875923;75;25643;-44
2022/04/14 13:34:09;;;;;;;1.10;1.10;;;;;;;;;;1837563;77;26250;-43
2022/04/14 13:36:37;;;;;;;0.80;0.80;;;;;;;;;;1860722;76;26278;-42
2022/04/14 13:39:05;;;;;;;0.95;0.95;;;;;;;;;;1846813;76;26329;-42
2022/04/14 13:41:33;;;;;;;1.17;0.90;;;;;;;;;;1849281;76;26385;-45
2022/04/14 13:44:00;;;;;;;0.90;0.90;;;;;;;;;;1854656;76;26872;-44
2022/04/14 13:46:27;;;;;;;0.93;0.93;;;;;;;;;;1855534;76;26320;-45
2022/04/14 13:48:55;;;;;;;0.80;0.80;;;;;;;;;;1820033;77;26356;-43
2022/04/14 13:51:23;;;;;;;0.68;0.68;;;;;;;;;;1840598;76;26701;-41
2022/04/14 13:53:50;;;;;;;0.88;0.88;;;;;;;;;;1844196;77;26280;-44
2022/04/14 13:56:17;;;;;;;1.00;1.00;;;;;;;;;;1846200;76;26367;-45
2022/04/14 13:58:45;;;;;;;0.93;0.93;;;;;;;;;;1848170;77;26856;-45
2022/04/14 14:01:13;;;;;;;0.88;0.88;;;;;;;;;;1845656;76;26887;-44
2022/04/14 14:03:40;;;;;;;0.80;0.80;;;;;;;;;;1853914;76;26314;-42
2022/04/14 14:06:08;;;;;;;0.72;0.72;;;;;;;;;;1837635;76;26340;-41
2022/04/14 14:08:35;;;;;;;0.80;0.80;;;;;;;;;;1856385;76;26223;-43
2022/04/14 14:11:03;;;;;;;0.78;0.78;;;;;;;;;;1847728;76;26354;-45
2022/04/14 14:13:30;;;;;;;0.80;0.80;;;;;;;;;;1846520;76;26254;-42
2022/04/14 14:15:58;;;;;;;0.82;0.70;;;;;;;;;;1853892;76;26261;-45
2022/04/14 14:18:25;;;;;;;0.78;0.78;;;;;;;;;;1843696;77;26794;-42
2022/04/14 14:20:52;;;;;;;0.90;0.90;;;;;;;;;;1845104;76;26324;-43
2022/04/14 14:23:20;;;;;;;0.70;0.70;;;;;;;;;;1856096;77;26242;-42
2022/04/14 14:25:47;;;;;;;0.72;0.72;;;;;;;;;;1847056;76;26253;-45
2022/04/14 14:28:16;;;;;;;0.90;0.90;;;;;;;;;;1835543;76;26300;-46
2022/04/14 14:30:43;;;;;;;1.10;0.80;;;;;;;;;;1843308;76;26270;-45
2022/04/14 14:33:11;;;;;;;0.75;0.75;;;;;;;;;;1852077;77;26360;-43
2022/04/14 14:35:38;;;;;;;0.80;0.80;;;;;;;;;;1855219;76;26301;-44
2022/04/14 14:38:06;;;;;;;1.00;1.00;;;;;;;;;;1815822;77;26412;-43
2022/04/14 14:40:33;;;;;;;1.05;0.78;;;;;;;;;;1808412;78;27168;-44
2022/04/14 14:43:01;;;;;;;0.90;0.90;;;;;;;;;;1829486;77;26326;-41
2022/04/14 14:45:28;;;;;;;0.80;0.80;;;;;;;;;;1850670;76;26715;-48
2022/04/14 14:47:55;;;;;;;0.90;0.90;;;;;;;;;;1847401;76;26278;-48
2022/04/14 14:50:23;;;;;;;1.00;1.00;;;;;;;;;;1828014;77;26312;-47
2022/04/14 14:52:52;;;;;;;0.85;0.85;;;;;;;;;;1822196;76;26294;-46